sensor_id;sensor_type;location;lat;lon;timestamp;pressure;altitude;pressure_sealevel;temperature;humidity
21706;BME280;11014;53.076;18.208;2023-07-20T00:01:09;100626.91;;;19.71;55.18
21706;BME280;11014;53.076;18.208;2023-07-20T00:03:38;100635.59;;;19.73;55.29
21706;BME280;11014;53.076;18.208;2023-07-20T00:06:07;100638.81;;;19.80;55.07
21706;BME280;11014;53.076;18.208;2023-07-20T00:08:36;100647.81;;;19.76;55.74
21706;BME280;11014;53.076;18.208;2023-07-20T00:11:04;100650.91;;;19.69;55.93
21706;BME280;11014;53.076;18.208;2023-07-20T00:13:32;100641.19;;;19.63;55.95
21706;BME280;11014;53.076;18.208;2023-07-20T00:16:04;100648.84;;;19.61;55.60
21706;BME280;11014;53.076;18.208;2023-07-20T00:18:33;100637.94;;;19.61;55.47
21706;BME280;11014;53.076;18.208;2023-07-20T00:21:01;100656.19;;;19.61;55.79
21706;BME280;11014;53.076;18.208;2023-07-20T00:23:32;100659.25;;;19.54;55.75
21706;BME280;11014;53.076;18.208;2023-07-20T00:26:03;100647.31;;;19.50;55.82
21706;BME280;11014;53.076;18.208;2023-07-20T00:28:31;100639.66;;;19.52;55.59
21706;BME280;11014;53.076;18.208;2023-07-20T00:31:00;100644.53;;;19.55;55.38
21706;BME280;11014;53.076;18.208;2023-07-20T00:33:31;100656.53;;;19.54;55.26
21706;BME280;11014;53.076;18.208;2023-07-20T00:39:05;100659.59;;;19.47;55.90
21706;BME280;11014;53.076;18.208;2023-07-20T00:41:34;100654.97;;;19.48;55.94
21706;BME280;11014;53.076;18.208;2023-07-20T00:44:04;100654.38;;;19.51;55.71
21706;BME280;11014;53.076;18.208;2023-07-20T00:46:32;100645.09;;;19.52;55.84
21706;BME280;11014;53.076;18.208;2023-07-20T00:49:01;100642.38;;;19.52;55.79
21706;BME280;11014;53.076;18.208;2023-07-20T00:51:30;100652.97;;;19.53;55.83
21706;BME280;11014;53.076;18.208;2023-07-20T00:53:58;100644.53;;;19.55;55.63
21706;BME280;11014;53.076;18.208;2023-07-20T00:56:27;100640.19;;;19.54;55.51
21706;BME280;11014;53.076;18.208;2023-07-20T00:58:56;100639.66;;;19.52;55.69
21706;BME280;11014;53.076;18.208;2023-07-20T01:01:24;100636.19;;;19.46;55.56
21706;BME280;11014;53.076;18.208;2023-07-20T01:03:53;100643.31;;;19.42;55.94
21706;BME280;11014;53.076;18.208;2023-07-20T01:06:26;100647.97;;;19.37;55.97
21706;BME280;11014;53.076;18.208;2023-07-20T01:09:08;100653.44;;;19.32;56.08
21706;BME280;11014;53.076;18.208;2023-07-20T01:11:43;100651.91;;;19.26;56.49
21706;BME280;11014;53.076;18.208;2023-07-20T01:14:15;100649.75;;;19.23;56.70
21706;BME280;11014;53.076;18.208;2023-07-20T01:16:44;100657.59;;;19.24;57.07
21706;BME280;11014;53.076;18.208;2023-07-20T01:19:14;100645.38;;;19.22;56.86
21706;BME280;11014;53.076;18.208;2023-07-20T01:24:32;100658.94;;;19.27;57.26
21706;BME280;11014;53.076;18.208;2023-07-20T01:30:02;100647.06;;;19.18;57.83
21706;BME280;11014;53.076;18.208;2023-07-20T01:32:36;100645.72;;;19.15;57.44
21706;BME280;11014;53.076;18.208;2023-07-20T01:35:08;100640.00;;;19.17;57.10
21706;BME280;11014;53.076;18.208;2023-07-20T01:37:38;100643.75;;;19.21;57.26
21706;BME280;11014;53.076;18.208;2023-07-20T01:40:08;100651.66;;;19.22;56.86
21706;BME280;11014;53.076;18.208;2023-07-20T01:42:37;100661.16;;;19.25;57.10
21706;BME280;11014;53.076;18.208;2023-07-20T01:45:06;100654.06;;;19.24;57.08
21706;BME280;11014;53.076;18.208;2023-07-20T01:47:34;100650.00;;;19.21;57.18
21706;BME280;11014;53.076;18.208;2023-07-20T01:50:03;100656.28;;;19.22;57.12
21706;BME280;11014;53.076;18.208;2023-07-20T01:52:33;100651.66;;;19.22;57.50
21706;BME280;11014;53.076;18.208;2023-07-20T01:55:02;100654.06;;;19.24;57.12
21706;BME280;11014;53.076;18.208;2023-07-20T01:57:31;100663.25;;;19.33;56.86
21706;BME280;11014;53.076;18.208;2023-07-20T02:00:00;100661.03;;;19.40;56.67
21706;BME280;11014;53.076;18.208;2023-07-20T02:02:41;100664.22;;;19.47;56.79
21706;BME280;11014;53.076;18.208;2023-07-20T02:05:10;100662.59;;;19.46;56.94
21706;BME280;11014;53.076;18.208;2023-07-20T02:07:38;100661.00;;;19.45;56.49
21706;BME280;11014;53.076;18.208;2023-07-20T02:10:07;100660.75;;;19.41;57.38
21706;BME280;11014;53.076;18.208;2023-07-20T02:12:36;100676.84;;;19.38;57.31
21706;BME280;11014;53.076;18.208;2023-07-20T02:15:05;100672.75;;;19.35;57.47
21706;BME280;11014;53.076;18.208;2023-07-20T02:17:35;100671.91;;;19.40;57.15
21706;BME280;11014;53.076;18.208;2023-07-20T02:20:05;100675.69;;;19.44;57.12
21706;BME280;11014;53.076;18.208;2023-07-20T02:22:37;100673.50;;;19.46;57.26
21706;BME280;11014;53.076;18.208;2023-07-20T02:25:06;100669.44;;;19.43;57.42
21706;BME280;11014;53.076;18.208;2023-07-20T02:27:35;100665.88;;;19.48;57.01
21706;BME280;11014;53.076;18.208;2023-07-20T02:30:04;100661.69;;;19.56;56.87
21706;BME280;11014;53.076;18.208;2023-07-20T02:32:33;100673.06;;;19.63;56.75
21706;BME280;11014;53.076;18.208;2023-07-20T02:35:02;100664.00;;;19.67;56.54
21706;BME280;11014;53.076;18.208;2023-07-20T02:37:31;100648.72;;;19.71;56.57
21706;BME280;11014;53.076;18.208;2023-07-20T02:40:00;100653.59;;;19.74;56.65
21706;BME280;11014;53.076;18.208;2023-07-20T02:42:30;100644.84;;;19.77;56.59
21706;BME280;11014;53.076;18.208;2023-07-20T02:44:58;100648.56;;;19.81;56.45
21706;BME280;11014;53.076;18.208;2023-07-20T02:47:27;100641.72;;;19.84;56.37
21706;BME280;11014;53.076;18.208;2023-07-20T02:49:56;100649.34;;;19.87;56.58
21706;BME280;11014;53.076;18.208;2023-07-20T02:52:25;100650.16;;;19.87;56.40
21706;BME280;11014;53.076;18.208;2023-07-20T02:54:54;100652.28;;;19.90;56.57
21706;BME280;11014;53.076;18.208;2023-07-20T02:57:22;100656.34;;;19.93;56.42
21706;BME280;11014;53.076;18.208;2023-07-20T02:59:50;100661.81;;;19.93;56.65
21706;BME280;11014;53.076;18.208;2023-07-20T03:02:19;100668.66;;;19.90;56.86
21706;BME280;11014;53.076;18.208;2023-07-20T03:04:47;100662.97;;;19.87;56.95
21706;BME280;11014;53.076;18.208;2023-07-20T03:07:16;100663.50;;;19.89;56.99
21706;BME280;11014;53.076;18.208;2023-07-20T03:09:47;100669.72;;;19.94;56.93
21706;BME280;11014;53.076;18.208;2023-07-20T03:12:15;100671.56;;;19.99;57.22
21706;BME280;11014;53.076;18.208;2023-07-20T03:14:44;100662.03;;;19.96;57.22
21706;BME280;11014;53.076;18.208;2023-07-20T03:17:12;100664.78;;;19.96;57.15
21706;BME280;11014;53.076;18.208;2023-07-20T03:19:41;100651.06;;;20.01;57.15
21706;BME280;11014;53.076;18.208;2023-07-20T03:22:11;100656.44;;;20.06;57.02
21706;BME280;11014;53.076;18.208;2023-07-20T03:24:42;100659.94;;;20.12;56.80
21706;BME280;11014;53.076;18.208;2023-07-20T03:27:13;100661.75;;;20.17;56.87
21706;BME280;11014;53.076;18.208;2023-07-20T03:29:41;100658.69;;;20.23;56.44
21706;BME280;11014;53.076;18.208;2023-07-20T03:32:10;100663.28;;;20.28;56.80
21706;BME280;11014;53.076;18.208;2023-07-20T03:34:44;100660.88;;;20.26;56.89
21706;BME280;11014;53.076;18.208;2023-07-20T03:37:14;100668.75;;;20.28;57.15
21706;BME280;11014;53.076;18.208;2023-07-20T03:39:43;100669.78;;;20.32;56.94
21706;BME280;11014;53.076;18.208;2023-07-20T03:42:12;100667.50;;;20.39;57.24
21706;BME280;11014;53.076;18.208;2023-07-20T03:44:41;100666.41;;;20.40;57.42
21706;BME280;11014;53.076;18.208;2023-07-20T03:47:09;100667.22;;;20.40;57.13
21706;BME280;11014;53.076;18.208;2023-07-20T03:49:38;100665.81;;;20.43;57.12
21706;BME280;11014;53.076;18.208;2023-07-20T03:52:06;100671.03;;;20.39;57.50
21706;BME280;11014;53.076;18.208;2023-07-20T03:54:35;100669.41;;;20.38;57.58
21706;BME280;11014;53.076;18.208;2023-07-20T03:57:03;100671.88;;;20.40;57.36
21706;BME280;11014;53.076;18.208;2023-07-20T03:59:32;100681.59;;;20.46;57.45
21706;BME280;11014;53.076;18.208;2023-07-20T04:02:01;100680.41;;;20.52;57.32
21706;BME280;11014;53.076;18.208;2023-07-20T04:04:30;100673.34;;;20.51;57.56
21706;BME280;11014;53.076;18.208;2023-07-20T04:06:58;100666.25;;;20.50;57.35
21706;BME280;11014;53.076;18.208;2023-07-20T04:09:27;100669.28;;;20.48;57.61
21706;BME280;11014;53.076;18.208;2023-07-20T04:11:55;100676.66;;;20.48;57.34
21706;BME280;11014;53.076;18.208;2023-07-20T04:14:24;100677.75;;;20.47;57.99
21706;BME280;11014;53.076;18.208;2023-07-20T04:16:52;100679.97;;;20.45;58.22
21706;BME280;11014;53.076;18.208;2023-07-20T04:19:21;100668.47;;;20.48;57.79
21706;BME280;11014;53.076;18.208;2023-07-20T04:21:49;100662.94;;;20.53;57.63
21706;BME280;11014;53.076;18.208;2023-07-20T04:24:17;100667.22;;;20.59;57.50
21706;BME280;11014;53.076;18.208;2023-07-20T04:26:46;100673.19;;;20.61;58.20
21706;BME280;11014;53.076;18.208;2023-07-20T04:29:14;100674.22;;;20.65;57.78
21706;BME280;11014;53.076;18.208;2023-07-20T04:31:44;100679.09;;;20.68;58.91
21706;BME280;11014;53.076;18.208;2023-07-20T04:34:13;100676.88;;;20.70;58.08
21706;BME280;11014;53.076;18.208;2023-07-20T04:36:42;100673.25;;;20.75;58.31
21706;BME280;11014;53.076;18.208;2023-07-20T04:39:11;100676.13;;;20.83;57.84
21706;BME280;11014;53.076;18.208;2023-07-20T04:41:54;100683.38;;;20.93;58.01
21706;BME280;11014;53.076;18.208;2023-07-20T04:44:23;100682.47;;;20.97;58.05
21706;BME280;11014;53.076;18.208;2023-07-20T04:46:51;100674.78;;;20.99;58.26
21706;BME280;11014;53.076;18.208;2023-07-20T04:49:20;100675.50;;;21.05;57.93
21706;BME280;11014;53.076;18.208;2023-07-20T04:51:49;100672.44;;;21.11;57.88
21706;BME280;11014;53.076;18.208;2023-07-20T04:54:19;100676.69;;;21.17;57.85
21706;BME280;11014;53.076;18.208;2023-07-20T04:56:48;100677.13;;;21.24;57.52
21706;BME280;11014;53.076;18.208;2023-07-20T04:59:20;100689.06;;;21.28;57.96
21706;BME280;11014;53.076;18.208;2023-07-20T05:01:49;100686.41;;;21.23;58.92
21706;BME280;11014;53.076;18.208;2023-07-20T05:04:18;100684.88;;;21.17;58.69
21706;BME280;11014;53.076;18.208;2023-07-20T05:06:48;100675.88;;;21.17;58.82
21706;BME280;11014;53.076;18.208;2023-07-20T05:09:16;100681.53;;;21.20;58.71
21706;BME280;11014;53.076;18.208;2023-07-20T05:11:45;100681.25;;;21.22;58.81
21706;BME280;11014;53.076;18.208;2023-07-20T05:14:15;100679.53;;;21.26;58.60
21706;BME280;11014;53.076;18.208;2023-07-20T05:16:45;100675.94;;;21.31;58.54
21706;BME280;11014;53.076;18.208;2023-07-20T05:19:14;100676.13;;;21.34;58.57
21706;BME280;11014;53.076;18.208;2023-07-20T05:21:42;100676.84;;;21.40;58.31
21706;BME280;11014;53.076;18.208;2023-07-20T05:24:11;100676.34;;;21.38;59.64
21706;BME280;11014;53.076;18.208;2023-07-20T05:26:39;100682.84;;;21.42;59.12
21706;BME280;11014;53.076;18.208;2023-07-20T05:29:08;100679.41;;;21.50;58.87
21706;BME280;11014;53.076;18.208;2023-07-20T05:31:36;100676.56;;;21.55;59.00
21706;BME280;11014;53.076;18.208;2023-07-20T05:34:04;100691.34;;;21.54;59.25
21706;BME280;11014;53.076;18.208;2023-07-20T05:36:33;100688.31;;;21.55;58.98
21706;BME280;11014;53.076;18.208;2023-07-20T05:39:01;100689.31;;;21.59;59.05
21706;BME280;11014;53.076;18.208;2023-07-20T05:41:29;100696.00;;;21.67;59.04
21706;BME280;11014;53.076;18.208;2023-07-20T05:43:58;100692.06;;;21.73;58.59
21706;BME280;11014;53.076;18.208;2023-07-20T05:46:26;100689.75;;;21.80;58.73
21706;BME280;11014;53.076;18.208;2023-07-20T05:48:58;100692.81;;;21.92;58.23
21706;BME280;11014;53.076;18.208;2023-07-20T05:51:26;100688.28;;;22.01;57.73
21706;BME280;11014;53.076;18.208;2023-07-20T05:53:55;100686.75;;;22.09;57.66
21706;BME280;11014;53.076;18.208;2023-07-20T05:56:23;100696.88;;;22.08;57.57
21706;BME280;11014;53.076;18.208;2023-07-20T05:58:52;100680.44;;;22.08;57.79
21706;BME280;11014;53.076;18.208;2023-07-20T06:01:21;100681.75;;;22.11;57.50
21706;BME280;11014;53.076;18.208;2023-07-20T06:03:50;100681.47;;;22.12;57.66
21706;BME280;11014;53.076;18.208;2023-07-20T06:06:19;100683.72;;;22.10;57.66
21706;BME280;11014;53.076;18.208;2023-07-20T06:08:48;100674.38;;;22.11;57.51
21706;BME280;11014;53.076;18.208;2023-07-20T06:11:16;100685.72;;;22.18;57.52
21706;BME280;11014;53.076;18.208;2023-07-20T06:13:45;100687.22;;;22.24;57.54
21706;BME280;11014;53.076;18.208;2023-07-20T06:16:13;100688.44;;;22.32;57.18
21706;BME280;11014;53.076;18.208;2023-07-20T06:18:42;100694.63;;;22.37;57.08
21706;BME280;11014;53.076;18.208;2023-07-20T06:21:10;100698.06;;;22.43;56.93
21706;BME280;11014;53.076;18.208;2023-07-20T06:23:40;100683.94;;;22.50;57.02
21706;BME280;11014;53.076;18.208;2023-07-20T06:26:08;100691.53;;;22.53;56.81
21706;BME280;11014;53.076;18.208;2023-07-20T06:28:38;100691.13;;;22.59;56.75
21706;BME280;11014;53.076;18.208;2023-07-20T06:31:06;100690.50;;;22.62;56.46
21706;BME280;11014;53.076;18.208;2023-07-20T06:33:34;100693.94;;;22.68;56.40
21706;BME280;11014;53.076;18.208;2023-07-20T06:36:03;100693.13;;;22.81;56.15
21706;BME280;11014;53.076;18.208;2023-07-20T06:38:32;100692.25;;;22.94;55.78
21706;BME280;11014;53.076;18.208;2023-07-20T06:41:00;100703.56;;;23.01;55.33
21706;BME280;11014;53.076;18.208;2023-07-20T06:43:32;100696.72;;;23.12;55.27
21706;BME280;11014;53.076;18.208;2023-07-20T06:46:03;100704.88;;;23.26;54.84
21706;BME280;11014;53.076;18.208;2023-07-20T06:48:33;100700.06;;;23.53;54.45
21706;BME280;11014;53.076;18.208;2023-07-20T06:51:21;100700.34;;;23.74;53.58
21706;BME280;11014;53.076;18.208;2023-07-20T06:53:50;100707.81;;;23.82;53.59
21706;BME280;11014;53.076;18.208;2023-07-20T06:56:18;100701.38;;;23.87;53.47
21706;BME280;11014;53.076;18.208;2023-07-20T06:58:53;100710.56;;;23.91;53.50
21706;BME280;11014;53.076;18.208;2023-07-20T07:01:21;100706.06;;;23.95;52.94
21706;BME280;11014;53.076;18.208;2023-07-20T07:03:51;100707.41;;;24.06;52.55
21706;BME280;11014;53.076;18.208;2023-07-20T07:06:20;100702.00;;;24.23;52.42
21706;BME280;11014;53.076;18.208;2023-07-20T07:08:51;100703.97;;;24.48;51.12
21706;BME280;11014;53.076;18.208;2023-07-20T07:11:21;100704.63;;;24.54;51.30
21706;BME280;11014;53.076;18.208;2023-07-20T07:13:54;100698.81;;;24.47;51.31
21706;BME280;11014;53.076;18.208;2023-07-20T07:16:24;100703.66;;;24.41;51.50
21706;BME280;11014;53.076;18.208;2023-07-20T07:18:53;100695.75;;;24.40;51.67
21706;BME280;11014;53.076;18.208;2023-07-20T07:21:27;100695.88;;;24.43;51.32
21706;BME280;11014;53.076;18.208;2023-07-20T07:23:55;100698.47;;;24.48;51.46
21706;BME280;11014;53.076;18.208;2023-07-20T07:26:25;100695.72;;;24.48;50.21
21706;BME280;11014;53.076;18.208;2023-07-20T07:28:54;100699.16;;;24.45;50.18
21706;BME280;11014;53.076;18.208;2023-07-20T07:31:22;100699.47;;;24.52;49.95
21706;BME280;11014;53.076;18.208;2023-07-20T07:33:51;100706.56;;;24.70;49.70
21706;BME280;11014;53.076;18.208;2023-07-20T07:36:20;100708.38;;;24.84;49.03
21706;BME280;11014;53.076;18.208;2023-07-20T07:38:52;100705.16;;;25.07;48.54
21706;BME280;11014;53.076;18.208;2023-07-20T07:41:24;100701.69;;;25.36;48.56
21706;BME280;11014;53.076;18.208;2023-07-20T07:43:53;100697.50;;;25.47;47.68
21706;BME280;11014;53.076;18.208;2023-07-20T07:46:21;100706.88;;;25.46;45.62
21706;BME280;11014;53.076;18.208;2023-07-20T07:48:51;100694.09;;;25.50;46.22
21706;BME280;11014;53.076;18.208;2023-07-20T07:51:19;100700.72;;;25.49;45.34
21706;BME280;11014;53.076;18.208;2023-07-20T07:53:47;100695.38;;;25.53;45.37
21706;BME280;11014;53.076;18.208;2023-07-20T07:56:17;100701.03;;;25.56;45.56
21706;BME280;11014;53.076;18.208;2023-07-20T07:58:45;100697.94;;;25.58;45.31
21706;BME280;11014;53.076;18.208;2023-07-20T08:01:14;100700.38;;;25.59;45.84
21706;BME280;11014;53.076;18.208;2023-07-20T08:03:42;100703.13;;;25.59;44.37
21706;BME280;11014;53.076;18.208;2023-07-20T08:06:11;100701.06;;;25.48;44.52
21706;BME280;11014;53.076;18.208;2023-07-20T08:08:42;100701.56;;;25.32;45.04
21706;BME280;11014;53.076;18.208;2023-07-20T08:11:10;100702.25;;;25.12;44.89
21706;BME280;11014;53.076;18.208;2023-07-20T08:13:41;100708.84;;;24.68;44.74
21706;BME280;11014;53.076;18.208;2023-07-20T08:16:09;100698.66;;;24.52;45.84
21706;BME280;11014;53.076;18.208;2023-07-20T08:18:38;100703.44;;;24.29;46.29
21706;BME280;11014;53.076;18.208;2023-07-20T08:21:07;100703.09;;;24.13;47.17
21706;BME280;11014;53.076;18.208;2023-07-20T08:23:35;100700.19;;;24.18;47.50
21706;BME280;11014;53.076;18.208;2023-07-20T08:26:05;100702.72;;;24.71;46.93
21706;BME280;11014;53.076;18.208;2023-07-20T08:28:34;100696.09;;;24.98;46.18
21706;BME280;11014;53.076;18.208;2023-07-20T08:31:05;100685.41;;;25.22;45.68
21706;BME280;11014;53.076;18.208;2023-07-20T08:33:33;100690.53;;;25.41;44.95
21706;BME280;11014;53.076;18.208;2023-07-20T08:36:02;100697.34;;;25.44;43.71
21706;BME280;11014;53.076;18.208;2023-07-20T08:38:34;100691.03;;;25.43;43.66
21706;BME280;11014;53.076;18.208;2023-07-20T08:41:03;100691.84;;;25.44;43.81
21706;BME280;11014;53.076;18.208;2023-07-20T08:43:33;100693.34;;;25.24;43.24
21706;BME280;11014;53.076;18.208;2023-07-20T08:46:01;100704.03;;;25.00;43.21
21706;BME280;11014;53.076;18.208;2023-07-20T08:48:34;100708.38;;;24.84;43.36
21706;BME280;11014;53.076;18.208;2023-07-20T08:51:02;100705.34;;;24.94;43.64
21706;BME280;11014;53.076;18.208;2023-07-20T08:53:33;100696.56;;;25.09;44.04
21706;BME280;11014;53.076;18.208;2023-07-20T08:56:01;100689.59;;;25.28;44.38
21706;BME280;11014;53.076;18.208;2023-07-20T08:58:30;100691.84;;;25.35;44.27
21706;BME280;11014;53.076;18.208;2023-07-20T09:00:59;100691.69;;;25.40;42.91
21706;BME280;11014;53.076;18.208;2023-07-20T09:03:30;100694.91;;;25.42;42.55
21706;BME280;11014;53.076;18.208;2023-07-20T09:06:00;100692.97;;;25.43;42.36
21706;BME280;11014;53.076;18.208;2023-07-20T09:08:29;100686.38;;;25.26;42.19
21706;BME280;11014;53.076;18.208;2023-07-20T09:18:01;100684.38;;;25.44;41.94
21706;BME280;11014;53.076;18.208;2023-07-20T09:20:30;100678.22;;;25.56;42.50
21706;BME280;11014;53.076;18.208;2023-07-20T09:22:59;100676.03;;;25.78;42.28
21706;BME280;11014;53.076;18.208;2023-07-20T09:25:32;100680.22;;;25.84;41.35
21706;BME280;11014;53.076;18.208;2023-07-20T09:28:02;100683.19;;;26.09;40.91
21706;BME280;11014;53.076;18.208;2023-07-20T09:30:32;100676.91;;;26.00;40.55
21706;BME280;11014;53.076;18.208;2023-07-20T09:33:01;100681.56;;;26.08;40.14
21706;BME280;11014;53.076;18.208;2023-07-20T09:35:30;100675.59;;;26.06;39.98
21706;BME280;11014;53.076;18.208;2023-07-20T09:38:09;100673.44;;;26.11;40.24
21706;BME280;11014;53.076;18.208;2023-07-20T09:40:41;100673.44;;;26.11;40.38
21706;BME280;11014;53.076;18.208;2023-07-20T09:43:15;100665.84;;;26.17;40.46
21706;BME280;11014;53.076;18.208;2023-07-20T09:45:47;100658.59;;;26.33;39.59
21706;BME280;11014;53.076;18.208;2023-07-20T09:48:18;100665.78;;;26.67;39.87
21706;BME280;11014;53.076;18.208;2023-07-20T09:50:55;100660.06;;;26.92;39.34
21706;BME280;11014;53.076;18.208;2023-07-20T09:53:24;100659.91;;;27.10;39.13
21706;BME280;11014;53.076;18.208;2023-07-20T09:55:53;100654.53;;;27.13;37.60
21706;BME280;11014;53.076;18.208;2023-07-20T09:58:22;100656.13;;;27.14;37.84
21706;BME280;11014;53.076;18.208;2023-07-20T10:00:51;100653.00;;;27.03;37.25
21706;BME280;11014;53.076;18.208;2023-07-20T10:03:22;100666.06;;;26.94;37.30
21706;BME280;11014;53.076;18.208;2023-07-20T10:05:52;100652.03;;;26.87;37.30
21706;BME280;11014;53.076;18.208;2023-07-20T10:08:25;100657.25;;;27.01;37.30
21706;BME280;11014;53.076;18.208;2023-07-20T10:10:58;100655.59;;;27.21;36.69
21706;BME280;11014;53.076;18.208;2023-07-20T10:13:29;100650.28;;;27.48;36.21
21706;BME280;11014;53.076;18.208;2023-07-20T10:16:00;100647.53;;;27.60;35.05
21706;BME280;11014;53.076;18.208;2023-07-20T10:18:47;100648.44;;;27.64;34.82
21706;BME280;11014;53.076;18.208;2023-07-20T10:21:19;100647.53;;;27.73;35.05
21706;BME280;11014;53.076;18.208;2023-07-20T10:23:54;100637.88;;;27.67;34.21
21706;BME280;11014;53.076;18.208;2023-07-20T10:26:26;100647.69;;;27.31;34.71
21706;BME280;11014;53.076;18.208;2023-07-20T10:28:55;100636.88;;;27.26;34.46
21706;BME280;11014;53.076;18.208;2023-07-20T10:31:24;100641.66;;;27.50;35.18
21706;BME280;11014;53.076;18.208;2023-07-20T10:33:56;100636.25;;;27.53;34.76
21706;BME280;11014;53.076;18.208;2023-07-20T10:36:25;100638.78;;;27.58;34.82
21706;BME280;11014;53.076;18.208;2023-07-20T10:38:58;100636.72;;;27.92;34.35
21706;BME280;11014;53.076;18.208;2023-07-20T10:41:34;100620.53;;;28.02;34.63
21706;BME280;11014;53.076;18.208;2023-07-20T10:44:03;100636.59;;;27.88;32.44
21706;BME280;11014;53.076;18.208;2023-07-20T10:46:34;100631.56;;;27.78;32.77
21706;BME280;11014;53.076;18.208;2023-07-20T10:49:03;100630.41;;;27.22;33.79
21706;BME280;11014;53.076;18.208;2023-07-20T10:51:39;100627.56;;;27.31;34.09
21706;BME280;11014;53.076;18.208;2023-07-20T10:54:33;100625.78;;;27.71;34.05
21706;BME280;11014;53.076;18.208;2023-07-20T10:56:57;100603.25;;;28.05;33.26
21706;BME280;11014;53.076;18.208;2023-07-20T10:59:41;100616.47;;;28.12;33.11
21706;BME280;11014;53.076;18.208;2023-07-20T11:02:12;100620.03;;;28.12;32.40
21706;BME280;11014;53.076;18.208;2023-07-20T11:04:46;100627.06;;;28.10;32.35
21706;BME280;11014;53.076;18.208;2023-07-20T11:07:23;100623.72;;;27.92;32.29
21706;BME280;11014;53.076;18.208;2023-07-20T11:10:14;100616.00;;;28.22;32.89
21706;BME280;11014;53.076;18.208;2023-07-20T11:16:20;100629.44;;;28.23;32.29
21706;BME280;11014;53.076;18.208;2023-07-20T11:18:28;100623.03;;;28.07;32.14
21706;BME280;11014;53.076;18.208;2023-07-20T11:20:56;100620.28;;;28.19;32.46
21706;BME280;11014;53.076;18.208;2023-07-20T11:23:25;100608.06;;;28.20;32.42
21706;BME280;11014;53.076;18.208;2023-07-20T11:25:53;100621.88;;;28.20;32.71
21706;BME280;11014;53.076;18.208;2023-07-20T11:28:23;100611.25;;;28.35;32.88
21706;BME280;11014;53.076;18.208;2023-07-20T11:30:54;100601.31;;;28.46;33.23
21706;BME280;11014;53.076;18.208;2023-07-20T11:33:23;100611.41;;;28.54;33.13
21706;BME280;11014;53.076;18.208;2023-07-20T11:35:51;100599.41;;;28.62;32.86
21706;BME280;11014;53.076;18.208;2023-07-20T11:38:21;100599.63;;;28.69;32.93
21706;BME280;11014;53.076;18.208;2023-07-20T11:40:49;100600.41;;;28.97;33.00
21706;BME280;11014;53.076;18.208;2023-07-20T11:43:18;100589.84;;;29.15;32.52
21706;BME280;11014;53.076;18.208;2023-07-20T11:45:48;100583.06;;;29.12;31.68
21706;BME280;11014;53.076;18.208;2023-07-20T11:48:23;100589.75;;;29.11;31.63
21706;BME280;11014;53.076;18.208;2023-07-20T11:50:51;100586.41;;;28.90;31.93
21706;BME280;11014;53.076;18.208;2023-07-20T11:53:20;100595.44;;;29.03;32.50
21706;BME280;11014;53.076;18.208;2023-07-20T11:55:49;100601.41;;;29.05;32.07
21706;BME280;11014;53.076;18.208;2023-07-20T11:58:18;100609.16;;;28.99;32.14
21706;BME280;11014;53.076;18.208;2023-07-20T12:00:47;100631.53;;;28.94;32.37
21706;BME280;11014;53.076;18.208;2023-07-20T12:03:16;100648.47;;;28.25;34.27
21706;BME280;11014;53.076;18.208;2023-07-20T12:05:44;100666.41;;;28.07;34.64
21706;BME280;11014;53.076;18.208;2023-07-20T12:08:28;100688.81;;;27.69;35.61
21706;BME280;11014;53.076;18.208;2023-07-20T12:10:57;100692.22;;;27.42;35.72
21706;BME280;11014;53.076;18.208;2023-07-20T12:13:38;100706.06;;;27.00;36.55
21706;BME280;11014;53.076;18.208;2023-07-20T12:16:11;100708.66;;;26.76;37.42
21706;BME280;11014;53.076;18.208;2023-07-20T12:18:44;100700.66;;;26.63;37.89
21706;BME280;11014;53.076;18.208;2023-07-20T12:21:12;100695.69;;;26.56;37.95
21706;BME280;11014;53.076;18.208;2023-07-20T12:23:41;100700.78;;;26.45;39.26
21706;BME280;11014;53.076;18.208;2023-07-20T12:26:10;100689.91;;;26.49;40.01
21706;BME280;11014;53.076;18.208;2023-07-20T12:28:39;100703.53;;;26.45;40.06
21706;BME280;11014;53.076;18.208;2023-07-20T12:31:09;100699.31;;;26.48;40.03
21706;BME280;11014;53.076;18.208;2023-07-20T12:33:39;100707.63;;;26.39;40.78
21706;BME280;11014;53.076;18.208;2023-07-20T12:36:07;100697.97;;;26.33;40.67
21706;BME280;11014;53.076;18.208;2023-07-20T12:38:36;100695.88;;;26.30;41.42
21706;BME280;11014;53.076;18.208;2023-07-20T12:41:05;100706.53;;;26.32;40.83
21706;BME280;11014;53.076;18.208;2023-07-20T12:43:33;100699.44;;;26.31;40.76
21706;BME280;11014;53.076;18.208;2023-07-20T12:46:02;100698.63;;;26.30;40.83
21706;BME280;11014;53.076;18.208;2023-07-20T12:48:32;100692.31;;;26.30;40.52
21706;BME280;11014;53.076;18.208;2023-07-20T12:51:00;100688.28;;;26.27;40.82
21706;BME280;11014;53.076;18.208;2023-07-20T12:53:30;100680.34;;;26.26;40.61
21706;BME280;11014;53.076;18.208;2023-07-20T12:55:59;100683.69;;;26.31;40.74
21706;BME280;11014;53.076;18.208;2023-07-20T12:58:28;100685.94;;;26.38;40.10
21706;BME280;11014;53.076;18.208;2023-07-20T13:00:56;100694.38;;;26.04;40.13
21706;BME280;11014;53.076;18.208;2023-07-20T13:03:28;100690.78;;;26.12;40.63
21706;BME280;11014;53.076;18.208;2023-07-20T13:05:59;100700.97;;;26.11;40.89
21706;BME280;11014;53.076;18.208;2023-07-20T13:08:33;100701.69;;;26.29;40.12
21706;BME280;11014;53.076;18.208;2023-07-20T13:11:01;100704.44;;;26.58;40.85
21706;BME280;11014;53.076;18.208;2023-07-20T13:13:30;100698.47;;;27.75;39.87